Terminal Aerodrome Forecast
Issued by NWS

Home | Current Version | Previous Version | Text Only | Print | Product List | Glossary Off
Versions: 1 2 3 4 5 6 7 8 9 10 11 12 13 14 15 16 17 18 19 20 21 22

000
FTUS43 KICT 162300
TAFRSL
TAF
KRSL 162322Z 1700/1724 16009KT P6SM SCT040
     FM170900 19008KT 4SM BR SCT012
     FM171400 22008KT P6SM SCT030
     FM172100 16008KT P6SM SCT040=

USA.gov is the U.S. government's official web portal to all federal, state and local government web resources and services.